createdAt,value
2017-11-05T00:00:12.770Z,25.08
2017-11-05T00:02:40.612Z,22.73
2017-11-05T00:05:09.033Z,19.20
2017-11-05T00:07:36.667Z,19.70
2017-11-05T00:10:05.387Z,21.42
2017-11-05T00:12:33.047Z,18.65
2017-11-05T00:15:02.316Z,23.00
2017-11-05T00:17:30.687Z,18.42
2017-11-05T00:19:58.358Z,21.95
2017-11-05T00:22:26.125Z,19.00
2017-11-05T00:24:53.826Z,19.80
2017-11-05T00:27:21.460Z,18.23
2017-11-05T00:29:49.076Z,17.60
2017-11-05T00:32:16.847Z,20.62
2017-11-05T00:34:44.465Z,19.77
2017-11-05T00:37:12.054Z,21.42
2017-11-05T00:39:40.466Z,20.45
2017-11-05T00:42:08.845Z,17.48
2017-11-05T00:44:37.235Z,20.02
2017-11-05T00:47:04.929Z,18.50
2017-11-05T00:49:32.524Z,22.45
2017-11-05T00:52:00.101Z,19.40
2017-11-05T00:54:27.667Z,21.52
2017-11-05T00:56:55.230Z,21.20
2017-11-05T00:59:22.826Z,25.88
2017-11-05T01:01:50.430Z,30.17
2017-11-05T01:04:18.001Z,26.85
2017-11-05T01:06:45.604Z,30.90
2017-11-05T01:09:13.950Z,29.23
2017-11-05T01:11:41.577Z,28.35
2017-11-05T01:14:09.188Z,28.05
2017-11-05T01:16:36.812Z,31.80
2017-11-05T01:19:04.415Z,30.85
2017-11-05T01:21:32.001Z,24.65
2017-11-05T01:23:59.644Z,22.92
2017-11-05T01:26:27.208Z,23.95
2017-11-05T01:28:54.795Z,21.55
2017-11-05T01:31:22.361Z,23.98
2017-11-05T01:33:49.938Z,19.80
2017-11-05T01:36:18.316Z,19.52
2017-11-05T01:38:45.859Z,14.68
2017-11-05T01:41:13.430Z,14.95
2017-11-05T01:43:41.015Z,20.33
2017-11-05T01:46:08.616Z,18.62
2017-11-05T01:48:36.186Z,18.15
2017-11-05T01:51:03.757Z,15.52
2017-11-05T01:53:31.338Z,16.95
2017-11-05T01:55:58.911Z,19.37
2017-11-05T01:58:26.523Z,17.12
2017-11-05T02:00:54.130Z,17.92
2017-11-05T02:03:21.695Z,16.98
2017-11-05T02:05:49.289Z,17.37
2017-11-05T02:08:17.675Z,12.50
2017-11-05T02:10:45.289Z,16.08
2017-11-05T02:13:12.842Z,14.85
2017-11-05T02:15:40.456Z,14.90
2017-11-05T02:18:08.069Z,17.73
2017-11-05T02:20:37.377Z,15.07
2017-11-05T02:23:06.586Z,15.70
2017-11-05T02:25:34.191Z,15.00
2017-11-05T02:28:01.850Z,15.77
2017-11-05T02:30:29.453Z,23.87
2017-11-05T02:32:57.866Z,24.25
2017-11-05T02:35:25.435Z,22.75
2017-11-05T02:37:53.020Z,17.37
2017-11-05T02:40:20.628Z,17.77
2017-11-05T02:42:48.233Z,15.73
2017-11-05T02:45:16.195Z,17.00
2017-11-05T02:47:43.873Z,20.67
2017-11-05T02:50:11.484Z,21.20
2017-11-05T02:52:39.091Z,18.12
2017-11-05T02:55:06.642Z,15.23
2017-11-05T02:57:35.005Z,15.80
2017-11-05T03:00:02.587Z,18.65
2017-11-05T03:02:30.974Z,16.50
2017-11-05T03:04:59.337Z,12.57
2017-11-05T03:07:26.963Z,14.38
2017-11-05T03:09:54.573Z,11.77
2017-11-05T03:12:22.996Z,12.45
2017-11-05T03:14:50.633Z,15.00
2017-11-05T03:17:19.035Z,19.25
2017-11-05T03:19:46.649Z,13.23
2017-11-05T03:22:14.262Z,13.52
2017-11-05T03:24:42.623Z,11.27
2017-11-05T03:27:10.236Z,13.32
2017-11-05T03:29:37.820Z,13.20
2017-11-05T03:32:05.403Z,14.20
2017-11-05T03:34:33.016Z,15.57
2017-11-05T03:37:00.631Z,15.82
2017-11-05T03:39:28.194Z,18.33
2017-11-05T03:41:55.789Z,14.23
2017-11-05T03:44:23.408Z,14.85
2017-11-05T03:46:51.022Z,13.95
2017-11-05T03:49:19.463Z,12.70
2017-11-05T03:51:47.069Z,15.30
2017-11-05T03:54:14.657Z,12.63
2017-11-05T03:56:42.298Z,12.15
2017-11-05T03:59:10.671Z,14.48
2017-11-05T04:01:38.269Z,12.70
2017-11-05T04:04:05.931Z,15.07
2017-11-05T04:06:33.509Z,15.02
2017-11-05T04:09:01.182Z,13.82
2017-11-05T04:11:29.020Z,12.35
2017-11-05T04:13:56.668Z,14.55
2017-11-05T04:16:25.264Z,10.82
2017-11-05T04:18:53.642Z,11.02
2017-11-05T04:21:21.322Z,10.77
2017-11-05T04:23:49.698Z,13.55
2017-11-05T04:26:17.263Z,10.38
2017-11-05T04:28:44.872Z,11.45
2017-11-05T04:31:12.526Z,11.68
2017-11-05T04:33:40.145Z,10.57
2017-11-05T04:36:07.758Z,12.73
2017-11-05T04:38:35.391Z,12.60
2017-11-05T04:41:03.005Z,12.90
2017-11-05T04:43:30.869Z,11.35
2017-11-05T04:45:58.462Z,9.63
2017-11-05T04:48:26.046Z,13.62
2017-11-05T04:50:53.639Z,9.85
2017-11-05T04:53:21.970Z,9.18
2017-11-05T04:55:49.577Z,10.35
2017-11-05T04:58:17.954Z,13.57
2017-11-05T05:00:46.360Z,9.70
2017-11-05T05:03:14.725Z,11.50
2017-11-05T05:05:44.065Z,9.65
2017-11-05T05:08:11.625Z,8.82
2017-11-05T05:10:39.199Z,10.02
2017-11-05T05:13:06.808Z,8.00
2017-11-05T05:15:34.437Z,7.97
2017-11-05T05:18:02.034Z,6.72
2017-11-05T05:20:29.599Z,9.63
2017-11-05T05:22:57.182Z,12.40
2017-11-05T05:25:24.751Z,16.50
2017-11-05T05:27:52.400Z,11.30
2017-11-05T05:30:20.003Z,14.32
2017-11-05T05:32:48.362Z,12.00
2017-11-05T05:35:15.951Z,19.00
2017-11-05T05:37:43.588Z,16.10
2017-11-05T05:40:11.191Z,17.23
2017-11-05T05:42:39.545Z,20.17
2017-11-05T05:45:07.899Z,17.50
2017-11-05T05:47:35.527Z,17.23
2017-11-05T05:50:03.088Z,16.60
2017-11-05T05:52:31.441Z,19.17
2017-11-05T05:55:00.751Z,21.33
2017-11-05T05:57:28.348Z,22.47
2017-11-05T05:59:55.920Z,21.13
2017-11-05T06:02:24.835Z,24.07
2017-11-05T06:04:52.988Z,23.87
2017-11-05T06:07:20.637Z,25.67
2017-11-05T06:09:49.336Z,24.40
2017-11-05T06:12:17.667Z,26.03
2017-11-05T06:14:46.358Z,25.87
2017-11-05T06:17:14.004Z,25.60
2017-11-05T06:19:41.596Z,27.17
2017-11-05T06:22:09.221Z,27.77
2017-11-05T06:24:37.015Z,30.03
2017-11-05T06:27:04.608Z,29.30
2017-11-05T06:29:32.195Z,29.97
2017-11-05T06:32:00.539Z,30.53
2017-11-05T06:34:28.649Z,30.13
2017-11-05T06:36:56.480Z,36.90
2017-11-05T06:39:24.056Z,35.93
2017-11-05T06:41:51.655Z,33.10
2017-11-05T06:44:20.033Z,26.60
2017-11-05T06:46:48.698Z,33.23
2017-11-05T06:49:16.296Z,36.27
2017-11-05T06:51:44.667Z,28.37
2017-11-05T06:54:12.252Z,35.77
2017-11-05T06:56:39.861Z,28.17
2017-11-05T06:59:07.446Z,26.67
2017-11-05T07:01:35.075Z,33.40
2017-11-05T07:04:02.677Z,27.50
2017-11-05T07:06:30.284Z,32.17
2017-11-05T07:08:57.921Z,26.93
2017-11-05T07:11:25.519Z,29.00
2017-11-05T07:13:53.231Z,32.57
2017-11-05T07:16:20.801Z,28.37
2017-11-05T07:18:48.406Z,26.40
2017-11-05T07:21:16.747Z,27.40
2017-11-05T07:23:44.374Z,27.43
2017-11-05T07:26:12.064Z,27.43
2017-11-05T07:28:39.629Z,27.47
2017-11-05T07:31:07.260Z,27.60
2017-11-05T07:33:34.845Z,28.60
2017-11-05T07:36:02.496Z,24.50
2017-11-05T07:38:30.134Z,24.27
2017-11-05T07:40:57.827Z,24.33
2017-11-05T07:43:25.842Z,23.70
2017-11-05T07:45:53.438Z,25.43
2017-11-05T07:48:21.091Z,24.00
2017-11-05T07:50:48.677Z,23.33
2017-11-05T07:53:16.315Z,23.80
2017-11-05T07:55:43.900Z,22.93
2017-11-05T07:58:12.273Z,23.50
2017-11-05T08:00:39.873Z,22.30
2017-11-05T08:03:09.632Z,22.17
2017-11-05T08:05:37.444Z,21.33
2017-11-05T08:08:05.853Z,20.37
2017-11-05T08:10:33.462Z,19.20
2017-11-05T08:13:01.062Z,21.20
2017-11-05T08:15:29.420Z,21.33
2017-11-05T08:17:57.020Z,23.57
2017-11-05T08:20:25.426Z,19.67
2017-11-05T08:22:52.997Z,18.93
2017-11-05T08:25:20.623Z,18.80
2017-11-05T08:27:48.238Z,16.23
2017-11-05T08:30:16.673Z,18.63
2017-11-05T08:32:45.027Z,15.50
2017-11-05T08:35:12.712Z,16.60
2017-11-05T08:37:40.321Z,20.07
2017-11-05T08:40:07.908Z,18.27
2017-11-05T08:42:35.471Z,20.10
2017-11-05T08:45:03.059Z,20.23
2017-11-05T08:47:30.644Z,20.00
2017-11-05T08:49:58.238Z,16.13
2017-11-05T08:52:25.866Z,21.33
2017-11-05T08:54:54.533Z,15.93
2017-11-05T08:57:22.128Z,15.23
2017-11-05T08:59:49.712Z,16.70
2017-11-05T09:02:17.494Z,19.97
2017-11-05T09:04:45.091Z,20.83
2017-11-05T09:07:12.720Z,16.87
2017-11-05T09:09:40.362Z,21.70
2017-11-05T09:12:08.848Z,20.00
2017-11-05T09:14:37.240Z,23.60
2017-11-05T09:17:05.659Z,21.57
2017-11-05T09:19:33.337Z,17.63
2017-11-05T09:22:01.020Z,18.90
2017-11-05T09:24:28.727Z,21.73
2017-11-05T09:26:56.350Z,21.90
2017-11-05T09:29:23.928Z,20.47
2017-11-05T09:31:51.580Z,19.43
2017-11-05T09:34:19.165Z,19.50
2017-11-05T09:36:47.572Z,22.53
2017-11-05T09:39:15.370Z,21.60
2017-11-05T09:41:42.948Z,14.17
2017-11-05T09:44:10.539Z,17.90
2017-11-05T09:46:38.124Z,15.30
2017-11-05T09:49:06.065Z,16.53
2017-11-05T09:51:33.904Z,15.47
2017-11-05T09:54:01.506Z,17.50
2017-11-05T09:56:29.108Z,19.40
2017-11-05T09:59:00.731Z,15.43
2017-11-05T10:01:28.360Z,15.23
2017-11-05T10:03:55.944Z,14.50
2017-11-05T10:06:23.539Z,14.30
2017-11-05T10:08:51.104Z,14.73
2017-11-05T10:11:21.004Z,12.93
2017-11-05T10:13:48.645Z,16.20
2017-11-05T10:16:16.238Z,12.83
2017-11-05T10:18:43.806Z,17.07
2017-11-05T10:21:11.415Z,13.40
2017-11-05T10:23:38.999Z,12.27
2017-11-05T10:26:06.545Z,12.93
2017-11-05T10:28:34.901Z,13.30
2017-11-05T10:31:03.493Z,13.13
2017-11-05T10:33:31.124Z,12.23
2017-11-05T10:35:58.702Z,15.03
2017-11-05T10:38:26.275Z,12.17
2017-11-05T10:40:53.812Z,14.80
2017-11-05T10:43:21.382Z,11.60
2017-11-05T10:45:48.939Z,10.87
2017-11-05T10:48:16.586Z,9.40
2017-11-05T10:50:44.250Z,11.63
2017-11-05T10:53:12.651Z,10.80
2017-11-05T10:55:40.214Z,9.90
2017-11-05T10:58:07.784Z,10.90
2017-11-05T11:00:35.644Z,11.33
2017-11-05T11:03:03.242Z,10.90
2017-11-05T11:05:30.813Z,9.67
2017-11-05T11:07:58.395Z,9.10
2017-11-05T11:10:26.988Z,8.77
2017-11-05T11:12:54.570Z,13.00
2017-11-05T11:15:22.978Z,14.53
2017-11-05T11:17:50.573Z,13.23
2017-11-05T11:20:18.199Z,11.47
2017-11-05T11:22:46.774Z,13.40
2017-11-05T11:25:16.425Z,14.93
2017-11-05T11:27:44.103Z,11.37
2017-11-05T11:30:11.805Z,14.20
2017-11-05T11:32:39.557Z,17.47
2017-11-05T11:35:07.178Z,12.97
2017-11-05T11:37:34.926Z,15.10
2017-11-05T11:40:02.542Z,13.00
2017-11-05T11:42:30.128Z,18.30
2017-11-05T11:44:57.699Z,16.30
2017-11-05T11:47:25.376Z,17.00
2017-11-05T11:49:53.058Z,16.50
2017-11-05T11:52:20.922Z,15.70
2017-11-05T11:54:48.567Z,14.47
2017-11-05T11:57:17.952Z,17.33
2017-11-05T11:59:45.591Z,16.87
2017-11-05T12:02:13.357Z,14.20
2017-11-05T12:04:40.932Z,13.20
2017-11-05T12:07:08.537Z,13.97
2017-11-05T12:09:36.522Z,15.23
2017-11-05T12:12:04.230Z,11.73
2017-11-05T12:14:31.877Z,10.73
2017-11-05T12:16:59.452Z,7.12
2017-11-05T12:19:27.079Z,4.45
2017-11-05T12:21:54.696Z,3.37
2017-11-05T12:24:22.348Z,4.90
2017-11-05T12:26:49.983Z,5.97
2017-11-05T12:29:18.595Z,2.28
2017-11-05T12:31:46.940Z,2.47
2017-11-05T12:34:14.622Z,1.70
2017-11-05T12:36:43.067Z,2.87
2017-11-05T12:39:10.640Z,1.47
2017-11-05T12:41:38.573Z,1.50
2017-11-05T12:44:06.180Z,2.10
2017-11-05T12:46:33.778Z,2.90
2017-11-05T12:49:01.374Z,4.57
2017-11-05T12:51:30.183Z,6.93
2017-11-05T12:53:57.845Z,3.90
2017-11-05T12:56:25.407Z,3.60
2017-11-05T12:58:52.996Z,2.83
2017-11-05T13:01:20.939Z,4.60
2017-11-05T13:03:49.146Z,3.30
2017-11-05T13:06:17.622Z,2.70
2017-11-05T13:08:46.277Z,2.30
2017-11-05T13:11:14.641Z,2.60
2017-11-05T13:13:42.182Z,2.23
2017-11-05T13:16:10.484Z,1.77
2017-11-05T13:18:38.090Z,2.43
2017-11-05T13:21:05.662Z,1.03
2017-11-05T13:23:33.204Z,0.90
2017-11-05T13:26:01.912Z,4.97
2017-11-05T13:28:29.596Z,0.90
2017-11-05T13:30:57.405Z,0.90
2017-11-05T13:33:26.814Z,1.05
2017-11-05T13:35:54.484Z,0.90
2017-11-05T13:38:22.074Z,3.17
2017-11-05T13:40:49.642Z,2.00
2017-11-05T13:43:17.965Z,0.80
2017-11-05T13:45:45.562Z,0.90
2017-11-05T13:48:13.222Z,0.90
2017-11-05T13:50:40.835Z,0.80
2017-11-05T13:53:10.420Z,1.05
2017-11-05T13:55:38.264Z,1.15
2017-11-05T13:58:06.044Z,1.00
2017-11-05T14:00:33.986Z,1.00
2017-11-05T14:03:01.725Z,2.20
2017-11-05T14:05:30.294Z,1.00
2017-11-05T14:08:00.221Z,0.93
2017-11-05T14:10:28.778Z,0.90
2017-11-05T14:12:56.418Z,1.00
2017-11-05T14:15:24.705Z,1.73
2017-11-05T14:17:52.301Z,0.90
2017-11-05T14:20:19.911Z,0.80
2017-11-05T14:22:47.642Z,3.70
2017-11-05T14:25:16.090Z,0.80
2017-11-05T14:27:43.700Z,0.80
2017-11-05T14:30:13.081Z,2.90
2017-11-05T14:32:40.702Z,0.80
2017-11-05T14:35:08.293Z,0.85
2017-11-05T14:37:35.969Z,0.90
2017-11-05T14:40:03.788Z,1.30
2017-11-05T14:42:31.491Z,0.90
2017-11-05T14:44:59.340Z,1.15
2017-11-05T14:47:28.281Z,0.80
2017-11-05T14:49:57.081Z,0.80
2017-11-05T14:52:24.817Z,0.80
2017-11-05T14:54:56.590Z,0.70
2017-11-05T14:57:24.433Z,0.70
2017-11-05T14:59:52.495Z,0.82
2017-11-05T15:02:20.349Z,2.85
2017-11-05T15:04:48.277Z,0.95
2017-11-05T15:07:18.047Z,1.40
2017-11-05T15:09:49.027Z,1.00
2017-11-05T15:12:16.564Z,0.90
2017-11-05T15:14:44.183Z,1.00
2017-11-05T15:17:11.862Z,0.80
2017-11-05T15:19:40.540Z,1.30
2017-11-05T15:22:09.191Z,2.30
2017-11-05T15:24:36.945Z,1.27
2017-11-05T15:27:05.327Z,1.00
2017-11-05T15:29:33.572Z,0.80
2017-11-05T15:32:02.052Z,1.00
2017-11-05T15:34:30.434Z,0.90
2017-11-05T15:36:58.226Z,0.90
2017-11-05T15:39:32.840Z,1.05
2017-11-05T15:42:07.813Z,1.10
2017-11-05T15:44:40.771Z,1.00
2017-11-05T15:47:13.479Z,1.30
2017-11-05T15:49:48.155Z,0.95
2017-11-05T15:52:24.471Z,1.37
2017-11-05T15:54:58.917Z,0.90
2017-11-05T15:57:38.401Z,1.85
2017-11-05T16:00:11.342Z,1.15
2017-11-05T16:05:32.129Z,1.10
2017-11-05T16:08:04.737Z,2.55
2017-11-05T16:10:44.809Z,1.90
2017-11-05T16:13:18.915Z,1.85
2017-11-05T16:15:55.443Z,2.62
2017-11-05T16:18:27.528Z,3.20
2017-11-05T16:20:56.637Z,2.62
2017-11-05T16:23:28.643Z,1.90
2017-11-05T16:26:05.336Z,3.08
2017-11-05T16:28:40.744Z,2.12
2017-11-05T16:31:13.944Z,4.20
2017-11-05T16:33:49.209Z,3.05
2017-11-05T16:36:25.744Z,3.70
2017-11-05T16:39:02.297Z,4.03
2017-11-05T16:41:33.585Z,2.70
2017-11-05T16:44:02.393Z,3.90
2017-11-05T16:46:39.305Z,3.60
2017-11-05T16:49:16.998Z,3.67
2017-11-05T16:51:55.553Z,3.70
2017-11-05T16:54:32.986Z,3.78
2017-11-05T16:57:07.955Z,3.30
2017-11-05T16:59:42.785Z,3.67
2017-11-05T17:02:23.360Z,4.10
2017-11-05T17:04:53.897Z,3.57
2017-11-05T17:07:23.591Z,4.50
2017-11-05T17:09:52.322Z,3.90
2017-11-05T17:12:21.886Z,3.55
2017-11-05T17:14:50.923Z,4.65
2017-11-05T17:17:19.018Z,5.25
2017-11-05T17:19:47.349Z,7.10
2017-11-05T17:22:15.179Z,6.47
2017-11-05T17:24:44.483Z,5.93
2017-11-05T17:27:21.250Z,6.65
2017-11-05T17:29:52.071Z,8.13
2017-11-05T17:32:20.736Z,5.85
2017-11-05T17:34:49.274Z,6.30
2017-11-05T17:37:17.398Z,6.47
2017-11-05T17:39:46.869Z,8.77
2017-11-05T17:42:17.062Z,6.68
2017-11-05T17:44:47.088Z,7.37
2017-11-05T17:47:16.123Z,7.78
2017-11-05T17:49:45.637Z,7.80
2017-11-05T17:52:13.256Z,8.52
2017-11-05T17:54:41.442Z,7.80
2017-11-05T17:57:09.099Z,9.95
2017-11-05T17:59:37.483Z,9.02
2017-11-05T18:02:06.917Z,9.35
2017-11-05T18:04:34.900Z,10.93
2017-11-05T18:07:03.464Z,8.30
2017-11-05T18:09:31.608Z,11.48
2017-11-05T18:11:59.187Z,10.82
2017-11-05T18:14:29.344Z,12.00
2017-11-05T18:16:58.054Z,11.55
2017-11-05T18:19:29.152Z,17.35
2017-11-05T18:21:58.485Z,12.20
2017-11-05T18:24:26.231Z,12.48
2017-11-05T18:26:55.332Z,12.82
2017-11-05T18:29:23.071Z,11.10
2017-11-05T18:31:51.862Z,13.32
2017-11-05T18:34:20.170Z,13.60
2017-11-05T18:36:48.219Z,13.88
2017-11-05T18:39:18.448Z,13.75
2017-11-05T18:41:46.569Z,10.95
2017-11-05T18:44:14.418Z,19.52
2017-11-05T18:46:43.178Z,11.55
2017-11-05T18:49:12.802Z,12.95
2017-11-05T18:51:40.390Z,12.18
2017-11-05T18:54:08.640Z,12.18
2017-11-05T18:56:37.974Z,15.50
2017-11-05T18:59:09.739Z,12.90
2017-11-05T19:01:39.201Z,14.65
2017-11-05T19:04:07.280Z,12.68
2017-11-05T19:06:35.205Z,14.73
2017-11-05T19:09:03.602Z,15.00
2017-11-05T19:11:31.241Z,11.85
2017-11-05T19:14:01.395Z,10.57
2017-11-05T19:16:29.800Z,12.05
2017-11-05T19:18:57.422Z,12.95
2017-11-05T19:21:25.762Z,14.82
2017-11-05T19:23:53.407Z,11.23
2017-11-05T19:26:20.968Z,12.88
2017-11-05T19:28:48.564Z,11.88
2017-11-05T19:31:16.120Z,14.05
2017-11-05T19:33:43.982Z,15.05
2017-11-05T19:36:14.029Z,10.95
2017-11-05T19:38:42.093Z,10.07
2017-11-05T19:41:10.802Z,12.48
2017-11-05T19:43:39.450Z,12.25
2017-11-05T19:46:07.396Z,11.55
2017-11-05T19:48:34.972Z,17.70
2017-11-05T19:51:02.607Z,16.33
2017-11-05T19:53:30.187Z,10.82
2017-11-05T19:55:59.594Z,11.63
2017-11-05T19:58:27.987Z,11.85
2017-11-05T20:00:55.607Z,10.50
2017-11-05T20:03:23.295Z,14.27
2017-11-05T20:05:51.666Z,11.82
2017-11-05T20:08:19.240Z,10.90
2017-11-05T20:10:46.859Z,11.23
2017-11-05T20:13:14.440Z,10.82
2017-11-05T20:15:42.036Z,12.70
2017-11-05T20:18:09.649Z,11.82
2017-11-05T20:20:37.244Z,12.25
2017-11-05T20:23:04.846Z,13.50
2017-11-05T20:25:33.196Z,11.48
2017-11-05T20:28:01.460Z,14.40
2017-11-05T20:30:29.055Z,9.32
2017-11-05T20:32:56.752Z,10.80
2017-11-05T20:35:24.401Z,15.32
2017-11-05T20:37:52.981Z,9.48
2017-11-05T20:40:21.130Z,11.32
2017-11-05T20:42:48.865Z,9.32
2017-11-05T20:45:16.539Z,14.38
2017-11-05T20:47:44.146Z,13.93
2017-11-05T20:50:11.759Z,11.52
2017-11-05T20:52:40.826Z,12.23
2017-11-05T20:55:09.175Z,10.15
2017-11-05T20:57:36.818Z,13.38
2017-11-05T21:00:04.404Z,15.15
2017-11-05T21:02:32.992Z,9.27
2017-11-05T21:05:00.724Z,11.80
2017-11-05T21:07:28.352Z,10.35
2017-11-05T21:09:56.721Z,15.73
2017-11-05T21:12:24.340Z,15.35
2017-11-05T21:14:51.994Z,15.98
2017-11-05T21:17:19.585Z,12.20
2017-11-05T21:19:47.205Z,11.52
2017-11-05T21:22:14.766Z,18.23
2017-11-05T21:24:42.378Z,13.98
2017-11-05T21:27:10.743Z,10.40
2017-11-05T21:29:38.360Z,11.85
2017-11-05T21:32:05.954Z,15.82
2017-11-05T21:34:33.554Z,12.40
2017-11-05T21:37:01.118Z,11.80
2017-11-05T21:39:28.701Z,18.25
2017-11-05T21:41:56.319Z,11.60
2017-11-05T21:44:24.824Z,9.25
2017-11-05T21:46:52.378Z,11.40
2017-11-05T21:49:20.683Z,10.93
2017-11-05T21:51:48.279Z,14.85
2017-11-05T21:54:15.890Z,13.88
2017-11-05T21:56:44.273Z,11.50
2017-11-05T21:59:11.885Z,12.07
2017-11-05T22:01:39.476Z,13.68
2017-11-05T22:04:07.096Z,15.30
2017-11-05T22:06:34.686Z,13.70
2017-11-05T22:09:02.274Z,15.82
2017-11-05T22:11:29.847Z,17.33
2017-11-05T22:13:58.219Z,14.65
2017-11-05T22:16:25.787Z,14.05
2017-11-05T22:18:54.269Z,14.18
2017-11-05T22:21:22.642Z,15.35
2017-11-05T22:23:50.238Z,18.70
2017-11-05T22:26:17.866Z,13.90
2017-11-05T22:28:45.429Z,11.05
2017-11-05T22:31:13.362Z,21.75
2017-11-05T22:33:40.981Z,14.25
2017-11-05T22:36:08.582Z,11.48
2017-11-05T22:38:36.179Z,15.13
2017-11-05T22:41:04.772Z,12.68
2017-11-05T22:43:32.529Z,21.73
2017-11-05T22:46:00.131Z,16.67
2017-11-05T22:48:27.749Z,13.50
2017-11-05T22:50:55.308Z,24.45
2017-11-05T22:53:22.900Z,18.08
2017-11-05T22:55:50.498Z,17.45
2017-11-05T22:58:19.079Z,18.83
2017-11-05T23:00:46.977Z,14.93
2017-11-05T23:03:14.542Z,23.05
2017-11-05T23:05:43.116Z,17.27
2017-11-05T23:08:10.716Z,17.85
2017-11-05T23:10:39.078Z,20.77
2017-11-05T23:13:06.686Z,20.12
2017-11-05T23:15:34.253Z,19.08
2017-11-05T23:18:01.862Z,16.35
2017-11-05T23:20:29.432Z,18.10
2017-11-05T23:22:57.768Z,20.33
2017-11-05T23:25:25.371Z,18.42
2017-11-05T23:27:52.958Z,15.82
2017-11-05T23:30:21.339Z,20.45
2017-11-05T23:32:49.735Z,16.85
2017-11-05T23:35:18.080Z,15.93
2017-11-05T23:37:45.668Z,18.30
2017-11-05T23:40:13.243Z,19.02
2017-11-05T23:42:40.866Z,16.42
2017-11-05T23:45:08.457Z,15.57
2017-11-05T23:47:36.083Z,15.50
2017-11-05T23:50:03.692Z,15.82
2017-11-05T23:52:31.264Z,16.00
2017-11-05T23:54:59.646Z,18.02
2017-11-05T23:57:27.236Z,16.73
2017-11-05T23:59:54.820Z,15.38
